Etusivu
METAR-TAF:

METAR-TAF

Lentoasemat :

Cloquet/Carlton County Airport

Cloquet, Minnesota, Yhdysvallat

Leveyspiiri: 46-42N, Pituuspiiri: 092-30W, korkeus merenpinnasta: 390 m

Tämänhetkinen sää

Tämä raportti tehtiin 20 minuuttia sitten, kello 00.28 UTC
Tuuli 4 kn etelästä
Lämpötila -9°C
Kosteus 44%
Ilmanpaine 1026 hPa
Näkyvyys: 16.1 km
selkeää

METAR: KCOQ 200028Z AUTO 18004KT 10SM CLR M09/M19 A3030 RMK AO2

Aika: 18:48 (00:48 UTC)


TAF: puuttuu

Säähavainnot ja -ennusteet yli 4000 lentoasemalta (METAR- ja TAF-raportit).

Käytössä olevat sääasemat on merkitty karttaan keltaisilla ja punaisilla pisteillä.

Aseta hiiri pisteen päälle nähdäksesi sääaseman nimen.

Klikkaa sitten nähdäksesi säähavainnot ja -ennusteet.

Kartan vaihtaminen: klikkaa mustalla rastilla varustettuja vihreitä pisteitä, niin voit zoomata sisään; viivalla varustettua vihreää pistettä, niin voit zoomata ulos tai vihreitä nuolia, niin pääset viereisille kartoille.


METAR-TAF: